createdAt,value
2019-06-10T00:00:55.341Z,76.03
2019-06-10T00:01:55.486Z,76.43
2019-06-10T00:02:55.568Z,76.63
2019-06-10T00:03:55.515Z,76.87
2019-06-10T00:04:55.570Z,76.97
2019-06-10T00:05:55.664Z,77.07
2019-06-10T00:06:55.771Z,77.28
2019-06-10T00:07:55.823Z,77.64
2019-06-10T00:08:56.030Z,77.03
2019-06-10T00:09:56.167Z,76.83
2019-06-10T00:10:56.187Z,76.43
2019-06-10T00:11:56.097Z,76.43
2019-06-10T00:12:55.450Z,76.93
2019-06-10T00:13:54.999Z,76.53
2019-06-10T00:14:54.993Z,76.23
2019-06-10T00:15:55.027Z,76.63
2019-06-10T00:16:54.989Z,76.43
2019-06-10T00:18:16.263Z,76.12
2019-06-10T00:18:55.971Z,76.23
2019-06-10T00:19:54.919Z,76.53
2019-06-10T00:20:54.953Z,76.43
2019-06-10T00:21:54.903Z,76.67
2019-06-10T00:22:54.919Z,76.77
2019-06-10T00:23:54.884Z,77.07
2019-06-10T00:24:54.872Z,76.77
2019-06-10T00:25:54.859Z,76.77
2019-06-10T00:26:54.931Z,76.63
2019-06-10T00:27:54.861Z,76.63
2019-06-10T00:28:54.900Z,76.73
2019-06-10T00:29:54.810Z,76.73
2019-06-10T00:30:54.801Z,77.24
2019-06-10T00:31:54.821Z,76.53
2019-06-10T00:32:54.776Z,76.73
2019-06-10T00:33:54.759Z,76.63
2019-06-10T00:34:54.800Z,76.53
2019-06-10T00:35:54.746Z,76.53
2019-06-10T00:36:54.772Z,76.87
2019-06-10T00:37:54.770Z,77.17
2019-06-10T00:38:54.725Z,77.37
2019-06-10T00:39:54.703Z,77.48
2019-06-10T00:40:54.692Z,77.48
2019-06-10T00:41:54.681Z,77.48
2019-06-10T00:42:54.664Z,77.58
2019-06-10T00:43:54.711Z,77.88
2019-06-10T00:44:54.694Z,78.12
2019-06-10T00:45:54.665Z,78.42
2019-06-10T00:46:54.639Z,78.63
2019-06-10T00:48:07.594Z,78.73
2019-06-10T00:48:55.630Z,78.83
2019-06-10T00:49:54.589Z,78.83
2019-06-10T00:50:54.597Z,78.93
2019-06-10T00:51:54.582Z,79.03
2019-06-10T00:52:54.648Z,78.93
2019-06-10T00:53:54.578Z,78.93
2019-06-10T00:54:54.560Z,79.13
2019-06-10T00:55:54.540Z,78.73
2019-06-10T00:56:54.531Z,79.13
2019-06-10T00:57:54.527Z,79.24
2019-06-10T00:58:54.633Z,79.13
2019-06-10T00:59:54.486Z,79.13
2019-06-10T01:00:54.484Z,79.34
2019-06-10T01:01:54.463Z,79.03
2019-06-10T01:02:54.450Z,78.79
2019-06-10T01:03:54.474Z,78.79
2019-06-10T01:04:54.440Z,78.39
2019-06-10T01:05:54.427Z,78.33
2019-06-10T01:06:54.405Z,78.22
2019-06-10T01:07:54.400Z,78.42
2019-06-10T01:08:54.427Z,78.63
2019-06-10T01:09:54.413Z,78.63
2019-06-10T01:10:54.379Z,79.03
2019-06-10T01:11:54.400Z,79.03
2019-06-10T01:12:54.333Z,79.03
2019-06-10T01:13:54.331Z,79.03
2019-06-10T01:14:54.390Z,79.24
2019-06-10T01:15:54.333Z,78.53
2019-06-10T01:16:54.310Z,78.53
2019-06-10T01:17:54.326Z,78.53
2019-06-10T01:18:54.315Z,78.63
2019-06-10T01:19:54.300Z,78.73
2019-06-10T01:20:54.273Z,78.93
2019-06-10T01:21:54.264Z,79.13
2019-06-10T01:22:54.249Z,79.27
2019-06-10T01:23:54.227Z,79.38
2019-06-10T01:24:54.285Z,79.68
2019-06-10T01:25:54.199Z,79.68
2019-06-10T01:26:54.198Z,79.78
2019-06-10T01:27:54.184Z,79.58
2019-06-10T01:28:54.172Z,79.34
2019-06-10T01:29:54.232Z,79.44
2019-06-10T01:30:54.270Z,79.54
2019-06-10T01:31:54.180Z,79.64
2019-06-10T01:32:54.138Z,79.24
2019-06-10T01:33:54.122Z,79.13
2019-06-10T01:34:54.114Z,79.13
2019-06-10T01:35:54.100Z,79.13
2019-06-10T01:36:54.106Z,79.54
2019-06-10T01:37:54.087Z,79.74
2019-06-10T01:38:54.076Z,79.24
2019-06-10T01:39:54.065Z,79.34
2019-06-10T01:40:54.092Z,79.64
2019-06-10T01:41:54.038Z,79.74
2019-06-10T01:42:54.026Z,79.64
2019-06-10T01:43:54.014Z,79.64
2019-06-10T01:44:54.099Z,79.74
2019-06-10T01:45:54.031Z,80.05
2019-06-10T01:46:53.973Z,79.88
2019-06-10T01:47:53.958Z,79.98
2019-06-10T01:48:53.985Z,80.29
2019-06-10T01:49:53.981Z,80.49
2019-06-10T01:50:53.968Z,80.79
2019-06-10T01:51:53.915Z,80.79
2019-06-10T01:52:53.909Z,80.59
2019-06-10T01:53:53.902Z,80.39
2019-06-10T01:54:53.909Z,80.49
2019-06-10T01:55:53.922Z,80.39
2019-06-10T01:56:53.874Z,80.59
2019-06-10T01:57:53.874Z,80.99
2019-06-10T01:58:53.898Z,80.99
2019-06-10T01:59:53.838Z,80.59
2019-06-10T02:00:53.906Z,80.90
2019-06-10T02:01:53.851Z,80.49
2019-06-10T02:02:53.828Z,80.59
2019-06-10T02:03:53.787Z,80.83
2019-06-10T02:04:53.804Z,81.04
2019-06-10T02:05:53.788Z,81.04
2019-06-10T02:06:53.765Z,81.13
2019-06-10T02:07:53.855Z,81.24
2019-06-10T02:08:53.745Z,81.44
2019-06-10T02:09:53.735Z,81.44
2019-06-10T02:10:53.753Z,81.54
2019-06-10T02:11:53.735Z,81.54
2019-06-10T02:12:53.726Z,81.64
2019-06-10T02:13:53.683Z,81.74
2019-06-10T02:14:53.670Z,81.85
2019-06-10T02:15:53.696Z,81.54
2019-06-10T02:16:53.685Z,81.44
2019-06-10T02:17:53.643Z,81.64
2019-06-10T02:19:00.273Z,81.54
2019-06-10T02:19:54.630Z,81.10
2019-06-10T02:20:53.750Z,80.90
2019-06-10T02:21:53.640Z,80.90
2019-06-10T02:22:53.634Z,80.83
2019-06-10T02:23:53.574Z,81.04
2019-06-10T02:24:53.574Z,81.24
2019-06-10T02:25:53.561Z,81.34
2019-06-10T02:26:53.688Z,81.74
2019-06-10T02:27:53.547Z,81.78
2019-06-10T02:28:53.531Z,82.19
2019-06-10T02:29:53.509Z,82.59
2019-06-10T02:30:55.759Z,82.73
2019-06-10T02:31:53.525Z,82.94
2019-06-10T02:32:53.515Z,83.24
2019-06-10T02:33:53.510Z,83.34
2019-06-10T02:35:08.174Z,83.24
2019-06-10T02:35:54.518Z,83.14
2019-06-10T02:36:53.856Z,83.10
2019-06-10T02:37:54.087Z,83.31
2019-06-10T02:38:54.127Z,82.70
2019-06-10T02:39:54.146Z,82.70
2019-06-10T02:40:54.010Z,82.90
2019-06-10T02:41:53.708Z,83.14
2019-06-10T02:42:54.089Z,83.24
2019-06-10T02:43:53.566Z,83.45
2019-06-10T02:44:54.075Z,83.24
2019-06-10T02:45:53.348Z,83.24
2019-06-10T02:46:54.385Z,83.10
2019-06-10T02:47:53.509Z,83.10
2019-06-10T02:48:54.404Z,83.10
2019-06-10T02:50:02.526Z,83.00
2019-06-10T02:50:54.501Z,82.90
2019-06-10T02:51:53.850Z,83.10
2019-06-10T02:52:53.272Z,83.20
2019-06-10T02:53:53.830Z,83.34
2019-06-10T02:54:53.807Z,83.20
2019-06-10T02:55:54.024Z,83.31
2019-06-10T02:56:53.979Z,83.40
2019-06-10T02:57:53.443Z,83.51
2019-06-10T02:58:53.615Z,83.61
2019-06-10T02:59:54.367Z,83.10
2019-06-10T03:00:54.589Z,82.90
2019-06-10T03:01:53.690Z,82.80
2019-06-10T03:02:53.199Z,82.66
2019-06-10T03:03:54.392Z,82.45
2019-06-10T03:04:53.772Z,82.45
2019-06-10T03:05:53.849Z,82.45
2019-06-10T03:06:54.258Z,82.45
2019-06-10T03:07:53.422Z,83.00
2019-06-10T03:08:55.017Z,83.00
2019-06-10T03:09:53.913Z,83.10
2019-06-10T03:10:54.823Z,83.20
2019-06-10T03:11:53.596Z,83.31
2019-06-10T03:12:53.056Z,83.10
2019-06-10T03:13:53.160Z,82.90
2019-06-10T03:14:53.033Z,83.00
2019-06-10T03:15:53.052Z,83.17
2019-06-10T03:16:53.142Z,82.80
2019-06-10T03:17:53.018Z,82.90
2019-06-10T03:18:52.981Z,83.31
2019-06-10T03:19:53.506Z,83.81
2019-06-10T03:20:52.983Z,83.20
2019-06-10T03:21:52.987Z,83.20
2019-06-10T03:22:52.952Z,83.31
2019-06-10T03:23:53.162Z,83.31
2019-06-10T03:24:52.940Z,83.51
2019-06-10T03:25:52.927Z,83.95
2019-06-10T03:26:52.893Z,84.26
2019-06-10T03:27:52.920Z,84.77
2019-06-10T03:28:52.873Z,84.16
2019-06-10T03:29:52.877Z,84.12
2019-06-10T03:30:58.144Z,84.01
2019-06-10T03:31:55.319Z,83.91
2019-06-10T03:32:55.644Z,84.01
2019-06-10T03:33:54.203Z,83.91
2019-06-10T03:34:54.929Z,83.81
2019-06-10T03:35:52.807Z,83.81
2019-06-10T03:36:53.531Z,84.12
2019-06-10T03:37:52.860Z,84.22
2019-06-10T03:38:53.695Z,84.36
2019-06-10T03:39:53.153Z,84.32
2019-06-10T03:40:52.772Z,84.42
2019-06-10T03:41:52.856Z,84.42
2019-06-10T03:42:52.805Z,84.42
2019-06-10T03:43:53.095Z,84.42
2019-06-10T03:44:52.690Z,84.12
2019-06-10T03:45:53.170Z,83.91
2019-06-10T03:46:52.743Z,84.12
2019-06-10T03:47:52.811Z,84.12
2019-06-10T03:48:52.777Z,84.12
2019-06-10T03:49:56.009Z,83.81
2019-06-10T03:50:52.650Z,83.57
2019-06-10T03:51:53.028Z,83.47
2019-06-10T03:52:52.693Z,83.57
2019-06-10T03:53:53.098Z,83.77
2019-06-10T03:54:52.640Z,83.57
2019-06-10T03:55:52.705Z,83.57
2019-06-10T03:56:52.559Z,83.57
2019-06-10T03:57:52.711Z,83.47
2019-06-10T03:58:52.642Z,83.17
2019-06-10T03:59:52.830Z,83.26
2019-06-10T04:00:52.526Z,83.47
2019-06-10T04:01:53.032Z,83.67
2019-06-10T04:02:53.214Z,83.67
2019-06-10T04:03:53.063Z,83.57
2019-06-10T04:04:52.503Z,83.57
2019-06-10T04:05:52.756Z,83.57
2019-06-10T04:06:53.147Z,83.47
2019-06-10T04:07:52.726Z,83.26
2019-06-10T04:08:52.459Z,83.47
2019-06-10T04:09:52.662Z,83.43
2019-06-10T04:10:52.423Z,83.23
2019-06-10T04:11:53.288Z,83.53
2019-06-10T04:12:52.480Z,83.33
2019-06-10T04:13:53.509Z,82.68
2019-06-10T04:14:52.372Z,82.17
2019-06-10T04:15:53.460Z,82.17
2019-06-10T04:16:52.604Z,82.44
2019-06-10T04:17:53.107Z,81.83
2019-06-10T04:18:53.412Z,81.12
2019-06-10T04:20:07.527Z,81.02
2019-06-10T04:20:53.302Z,81.02
2019-06-10T04:21:53.166Z,80.72
2019-06-10T04:22:52.406Z,80.82
2019-06-10T04:23:52.792Z,80.72
2019-06-10T04:24:52.274Z,80.68
2019-06-10T04:25:52.728Z,80.27
2019-06-10T04:26:52.361Z,80.13
2019-06-10T04:27:52.483Z,79.63
2019-06-10T04:28:53.014Z,79.63
2019-06-10T04:29:52.524Z,80.50
2019-06-10T04:30:53.575Z,80.50
2019-06-10T04:31:53.555Z,79.59
2019-06-10T04:32:52.906Z,79.35
2019-06-10T04:33:52.435Z,79.55
2019-06-10T04:34:52.991Z,79.86
2019-06-10T04:35:52.145Z,78.34
2019-06-10T04:36:52.579Z,78.14
2019-06-10T04:37:52.169Z,78.04
2019-06-10T04:38:52.538Z,78.24
2019-06-10T04:39:53.006Z,78.75
2019-06-10T04:40:52.552Z,78.24
2019-06-10T04:41:53.060Z,78.04
2019-06-10T04:42:52.556Z,78.00
2019-06-10T04:43:53.230Z,77.39
2019-06-10T04:44:52.580Z,77.70
2019-06-10T04:45:52.824Z,78.00
2019-06-10T04:46:52.149Z,77.70
2019-06-10T04:47:52.500Z,77.80
2019-06-10T04:48:53.184Z,78.30
2019-06-10T04:49:52.317Z,78.24
2019-06-10T04:50:53.410Z,79.05
2019-06-10T04:51:52.442Z,78.55
2019-06-10T04:52:52.887Z,79.25
2019-06-10T04:53:52.521Z,78.95
2019-06-10T04:54:52.728Z,79.25
2019-06-10T04:55:52.261Z,79.46
2019-06-10T04:56:52.879Z,79.75
2019-06-10T04:57:52.182Z,80.16
2019-06-10T04:58:52.487Z,81.17
2019-06-10T04:59:53.008Z,81.78
2019-06-10T05:00:52.424Z,80.97
2019-06-10T05:01:53.011Z,80.16
2019-06-10T05:02:52.289Z,81.68
2019-06-10T05:03:52.633Z,81.98
2019-06-10T05:04:53.164Z,81.37
2019-06-10T05:05:52.633Z,81.68
2019-06-10T05:06:52.678Z,81.88
2019-06-10T05:07:52.113Z,81.37
2019-06-10T05:08:53.760Z,79.46
2019-06-10T05:09:52.500Z,79.46
2019-06-10T05:10:52.940Z,79.41
2019-06-10T05:11:52.264Z,79.72
2019-06-10T05:12:52.598Z,81.13
2019-06-10T05:13:53.240Z,79.32
2019-06-10T05:14:52.650Z,79.72
2019-06-10T05:15:52.685Z,81.50
2019-06-10T05:16:54.154Z,80.29
2019-06-10T05:17:52.705Z,79.28
2019-06-10T05:18:54.603Z,79.48
2019-06-10T05:19:53.058Z,79.88
2019-06-10T05:20:58.257Z,80.69
2019-06-10T05:21:52.646Z,78.77
2019-06-10T05:22:52.857Z,79.68
2019-06-10T05:23:52.185Z,80.49
2019-06-10T05:24:52.713Z,81.05
2019-06-10T05:25:52.628Z,81.67
2019-06-10T05:26:52.692Z,80.15
2019-06-10T05:27:52.240Z,80.35
2019-06-10T05:28:52.428Z,79.64
2019-06-10T05:29:52.705Z,79.34
2019-06-10T05:30:53.177Z,79.34
2019-06-10T05:31:52.279Z,78.94
2019-06-10T05:32:52.361Z,79.85
2019-06-10T05:33:52.995Z,77.53
2019-06-10T05:34:52.789Z,77.73
2019-06-10T05:35:52.945Z,78.84
2019-06-10T05:36:52.572Z,78.33
2019-06-10T05:37:52.763Z,78.63
2019-06-10T05:38:52.623Z,78.94
2019-06-10T05:39:52.654Z,79.04
2019-06-10T05:40:52.126Z,78.84
2019-06-10T05:41:53.056Z,78.43
2019-06-10T05:42:52.851Z,79.64
2019-06-10T05:43:52.327Z,79.85
2019-06-10T05:44:52.454Z,80.11
2019-06-10T05:45:52.993Z,79.30
2019-06-10T05:46:52.836Z,79.67
2019-06-10T05:47:53.090Z,77.82
2019-06-10T05:48:52.602Z,77.08
2019-06-10T05:49:52.916Z,77.17
2019-06-10T05:51:00.133Z,74.55
2019-06-10T05:51:52.755Z,74.02
2019-06-10T05:52:52.063Z,73.92
2019-06-10T05:53:52.835Z,74.42
2019-06-10T05:54:52.179Z,74.49
2019-06-10T05:55:52.964Z,73.88
2019-06-10T05:56:52.174Z,72.67
2019-06-10T05:57:53.270Z,72.07
2019-06-10T05:58:52.442Z,71.87
2019-06-10T05:59:52.283Z,71.97
2019-06-10T06:00:53.161Z,71.67
2019-06-10T06:01:53.878Z,71.94
2019-06-10T06:02:52.297Z,72.57
2019-06-10T06:03:52.925Z,73.28
2019-06-10T06:04:53.089Z,72.84
2019-06-10T06:05:52.507Z,71.94
2019-06-10T06:06:53.149Z,72.03
2019-06-10T06:08:02.321Z,72.84
2019-06-10T06:08:53.419Z,72.74
2019-06-10T06:09:53.174Z,72.24
2019-06-10T06:10:52.759Z,71.63
2019-06-10T06:11:52.413Z,71.90
2019-06-10T06:12:52.649Z,70.09
2019-06-10T06:13:52.206Z,69.99
2019-06-10T06:14:52.784Z,70.29
2019-06-10T06:15:52.821Z,71.90
2019-06-10T06:16:53.209Z,72.30
2019-06-10T06:18:03.996Z,71.47
2019-06-10T06:18:52.645Z,71.77
2019-06-10T06:19:53.317Z,70.53
2019-06-10T06:20:52.613Z,69.12
2019-06-10T06:21:53.009Z,68.32
2019-06-10T06:22:52.250Z,70.43
2019-06-10T06:23:52.849Z,69.89
2019-06-10T06:24:52.260Z,68.68
2019-06-10T06:25:53.183Z,70.39
2019-06-10T06:26:53.279Z,69.89
2019-06-10T06:27:52.455Z,69.49
2019-06-10T06:28:53.301Z,69.19
2019-06-10T06:29:52.452Z,68.79
2019-06-10T06:30:52.820Z,68.21
2019-06-10T06:31:52.294Z,68.72
2019-06-10T06:32:53.093Z,68.12
2019-06-10T06:33:52.716Z,68.21
2019-06-10T06:34:52.681Z,69.12
2019-06-10T06:35:53.892Z,69.32
2019-06-10T06:36:52.880Z,68.62
2019-06-10T06:37:53.972Z,69.82
2019-06-10T06:38:52.883Z,68.75
2019-06-10T06:39:52.365Z,69.56
2019-06-10T06:40:53.741Z,69.89
2019-06-10T06:41:52.750Z,70.79
2019-06-10T06:42:52.546Z,70.50
2019-06-10T06:43:52.793Z,69.99
2019-06-10T06:44:52.523Z,71.30
2019-06-10T06:45:52.984Z,71.00
2019-06-10T06:46:53.091Z,70.19
2019-06-10T06:47:52.743Z,70.86
2019-06-10T06:48:52.971Z,70.66
2019-06-10T06:49:52.946Z,70.46
2019-06-10T06:51:01.681Z,70.36
2019-06-10T06:51:56.207Z,71.97
2019-06-10T06:53:18.721Z,71.36
2019-06-10T06:53:55.452Z,70.36
2019-06-10T06:54:52.901Z,70.73
2019-06-10T06:55:53.541Z,70.73
2019-06-10T06:56:53.393Z,70.09
2019-06-10T06:57:52.912Z,69.46
2019-06-10T06:58:52.435Z,68.55
2019-06-10T06:59:52.668Z,69.15
2019-06-10T07:01:01.410Z,69.06
2019-06-10T07:01:52.487Z,68.42
2019-06-10T07:02:52.813Z,67.79
2019-06-10T07:03:53.287Z,67.99
2019-06-10T07:04:52.597Z,66.45
2019-06-10T07:05:52.906Z,66.95
2019-06-10T07:06:54.975Z,67.32
2019-06-10T07:07:52.714Z,67.72
2019-06-10T07:09:03.402Z,66.52
2019-06-10T07:09:52.678Z,66.92
2019-06-10T07:10:52.225Z,66.85
2019-06-10T07:11:52.852Z,65.75
2019-06-10T07:12:52.315Z,65.65
2019-06-10T07:13:53.325Z,67.18
2019-06-10T07:14:52.484Z,66.75
2019-06-10T07:15:53.288Z,65.95
2019-06-10T07:16:52.815Z,66.15
2019-06-10T07:17:52.545Z,65.82
2019-06-10T07:18:50.636Z,64.01
2019-06-10T07:19:52.883Z,63.89
2019-06-10T07:20:50.545Z,65.09
2019-06-10T07:22:05.591Z,65.12
2019-06-10T07:22:53.338Z,64.72
2019-06-10T07:23:52.600Z,66.32
2019-06-10T07:24:52.636Z,66.32
2019-06-10T07:25:50.352Z,65.48
2019-06-10T07:26:54.308Z,66.28
2019-06-10T07:27:52.581Z,65.68
2019-06-10T07:28:50.281Z,66.38
2019-06-10T07:29:52.747Z,65.68
2019-06-10T07:30:52.656Z,66.18
2019-06-10T07:31:53.591Z,67.05
2019-06-10T07:32:52.683Z,65.75
2019-06-10T07:33:52.365Z,63.04
2019-06-10T07:34:52.321Z,63.75
2019-06-10T07:35:52.355Z,63.31
2019-06-10T07:36:52.153Z,64.42
2019-06-10T07:37:52.305Z,65.72
2019-06-10T07:38:53.572Z,64.72
2019-06-10T07:39:52.190Z,63.71
2019-06-10T07:40:50.145Z,63.92
2019-06-10T07:41:52.669Z,64.89
2019-06-10T07:42:50.170Z,65.12
2019-06-10T07:43:52.585Z,64.81
2019-06-10T07:44:50.119Z,64.12
2019-06-10T07:45:53.208Z,64.75
2019-06-10T07:46:50.059Z,65.75
2019-06-10T07:47:52.160Z,66.32
2019-06-10T07:48:53.540Z,66.02
2019-06-10T07:49:52.251Z,65.89
2019-06-10T07:50:49.998Z,65.09
2019-06-10T07:51:52.212Z,65.48
2019-06-10T07:52:49.973Z,64.98
2019-06-10T07:53:52.309Z,63.89
2019-06-10T07:54:49.938Z,63.56
2019-06-10T07:55:49.945Z,63.56
2019-06-10T07:56:50.656Z,64.06
2019-06-10T07:57:49.945Z,62.55
2019-06-10T07:58:52.536Z,62.52
2019-06-10T07:59:52.103Z,62.22
2019-06-10T08:00:49.879Z,61.82
2019-06-10T08:01:52.481Z,61.35
2019-06-10T08:02:52.999Z,60.62
2019-06-10T08:03:52.394Z,61.85
2019-06-10T08:04:49.865Z,62.75
2019-06-10T08:05:52.374Z,61.62
2019-06-10T08:06:52.402Z,61.89
2019-06-10T08:07:49.813Z,60.29
2019-06-10T08:08:49.782Z,60.14
2019-06-10T08:09:49.858Z,62.34
2019-06-10T08:10:49.851Z,60.63
2019-06-10T08:11:49.801Z,61.13
2019-06-10T08:12:49.773Z,59.06
2019-06-10T08:13:49.736Z,59.66
2019-06-10T08:14:49.734Z,59.77
2019-06-10T08:15:49.750Z,60.77
2019-06-10T08:16:49.723Z,61.57
2019-06-10T08:17:49.685Z,59.17
2019-06-10T08:19:16.092Z,59.86
2019-06-10T08:19:53.846Z,59.39
2019-06-10T08:20:49.724Z,62.42
2019-06-10T08:21:49.839Z,60.02
2019-06-10T08:22:54.385Z,60.22
2019-06-10T08:23:50.714Z,60.22
2019-06-10T08:24:49.618Z,60.62
2019-06-10T08:25:54.659Z,59.92
2019-06-10T08:26:52.922Z,60.95
2019-06-10T08:27:49.593Z,61.65
2019-06-10T08:28:49.701Z,62.82
2019-06-10T08:29:58.562Z,62.62
2019-06-10T08:30:52.959Z,61.02
2019-06-10T08:31:50.127Z,60.82
2019-06-10T08:32:53.290Z,61.92
2019-06-10T08:33:53.120Z,62.19
2019-06-10T08:34:49.510Z,62.29
2019-06-10T08:35:57.363Z,62.59
2019-06-10T08:36:53.626Z,61.87
2019-06-10T08:37:49.487Z,60.36
2019-06-10T08:38:49.455Z,59.47
2019-06-10T08:39:49.464Z,61.57
2019-06-10T08:40:49.450Z,61.36
2019-06-10T08:41:49.458Z,61.63
2019-06-10T08:42:49.446Z,63.23
2019-06-10T08:43:49.439Z,62.93
2019-06-10T08:44:49.417Z,62.13
2019-06-10T08:45:49.396Z,61.54
2019-06-10T08:46:49.403Z,62.53
2019-06-10T08:47:49.375Z,61.33
2019-06-10T08:48:49.597Z,62.53
2019-06-10T08:49:49.394Z,61.33
2019-06-10T08:50:50.194Z,60.38
2019-06-10T08:51:50.238Z,59.85
2019-06-10T08:53:05.657Z,59.12
2019-06-10T08:53:52.937Z,57.73
2019-06-10T08:54:53.638Z,57.53
2019-06-10T08:55:50.857Z,59.02
2019-06-10T08:56:50.894Z,58.75
2019-06-10T08:57:51.635Z,57.65
2019-06-10T08:58:50.829Z,59.18
2019-06-10T08:59:49.411Z,58.78
2019-06-10T09:00:49.599Z,59.88
2019-06-10T09:01:55.712Z,59.38
2019-06-10T09:02:53.648Z,59.18
2019-06-10T09:03:50.492Z,57.41
2019-06-10T09:04:50.474Z,59.08
2019-06-10T09:05:50.966Z,59.95
2019-06-10T09:06:50.818Z,59.55
2019-06-10T09:07:51.259Z,59.35
2019-06-10T09:08:53.872Z,59.58
2019-06-10T09:09:51.101Z,59.70
2019-06-10T09:10:51.579Z,60.61
2019-06-10T09:11:51.307Z,61.33
2019-06-10T09:12:54.195Z,61.54
2019-06-10T09:13:50.371Z,62.43
2019-06-10T09:14:50.634Z,61.76
2019-06-10T09:16:07.156Z,60.96
2019-06-10T09:16:51.461Z,62.56
2019-06-10T09:17:52.080Z,61.19
2019-06-10T09:18:52.062Z,62.29
2019-06-10T09:19:51.231Z,61.09
2019-06-10T09:20:52.664Z,61.26
2019-06-10T09:21:53.375Z,62.16
2019-06-10T09:23:11.209Z,63.06
2019-06-10T09:23:56.639Z,61.89
2019-06-10T09:24:53.131Z,61.87
2019-06-10T09:25:54.500Z,60.66
2019-06-10T09:26:51.393Z,60.16
2019-06-10T09:27:51.835Z,60.27
2019-06-10T09:28:52.733Z,59.66
2019-06-10T09:29:54.783Z,59.94
2019-06-10T09:30:54.052Z,58.84
2019-06-10T09:31:53.269Z,59.66
2019-06-10T09:32:53.857Z,60.44
2019-06-10T09:33:53.307Z,60.14
2019-06-10T09:34:54.744Z,60.61
2019-06-10T09:35:52.829Z,59.34
2019-06-10T09:36:56.247Z,59.94
2019-06-10T09:37:51.666Z,61.24
2019-06-10T09:38:52.773Z,61.51
2019-06-10T09:39:58.034Z,61.10
2019-06-10T09:40:57.631Z,58.28
2019-06-10T09:41:59.724Z,57.76
2019-06-10T09:42:53.004Z,58.45
2019-06-10T09:43:52.955Z,55.54
2019-06-10T09:44:51.774Z,56.53
2019-06-10T09:45:51.352Z,56.13
2019-06-10T09:46:52.057Z,57.23
2019-06-10T09:47:55.537Z,56.53
2019-06-10T09:48:53.603Z,54.06
2019-06-10T09:49:51.410Z,55.66
2019-06-10T09:50:56.636Z,53.77
2019-06-10T09:51:52.765Z,53.79
2019-06-10T09:52:53.372Z,54.59
2019-06-10T09:53:56.349Z,54.99
2019-06-10T09:54:55.710Z,53.89
2019-06-10T09:55:52.458Z,55.49
2019-06-10T09:56:50.408Z,55.96
2019-06-10T09:57:53.179Z,56.46
2019-06-10T09:58:51.163Z,55.66
2019-06-10T09:59:54.022Z,56.13
2019-06-10T10:00:53.574Z,55.93
2019-06-10T10:01:53.559Z,55.43
2019-06-10T10:02:52.067Z,55.56
2019-06-10T10:03:55.001Z,55.86
2019-06-10T10:04:54.798Z,55.83
2019-06-10T10:06:06.315Z,55.33
2019-06-10T10:06:54.368Z,54.41
2019-06-10T10:07:51.941Z,54.41
2019-06-10T10:08:53.868Z,52.99
2019-06-10T10:09:51.897Z,55.28
2019-06-10T10:10:51.974Z,54.28
2019-06-10T10:11:51.464Z,52.22
2019-06-10T10:12:51.225Z,51.82
2019-06-10T10:13:49.911Z,53.14
2019-06-10T10:14:50.211Z,55.04
2019-06-10T10:15:49.687Z,53.64
2019-06-10T10:16:52.812Z,53.34
2019-06-10T10:17:49.941Z,52.84
2019-06-10T10:18:52.098Z,55.06
2019-06-10T10:19:50.326Z,54.57
2019-06-10T10:20:49.921Z,56.76
2019-06-10T10:21:51.224Z,53.06
2019-06-10T10:22:50.601Z,53.79
2019-06-10T10:23:56.539Z,54.36
2019-06-10T10:24:49.387Z,53.77
2019-06-10T10:25:49.657Z,55.46
2019-06-10T10:26:50.875Z,55.04
2019-06-10T10:27:51.253Z,55.21
2019-06-10T10:28:51.804Z,54.71
2019-06-10T10:29:50.024Z,53.84
2019-06-10T10:30:50.511Z,53.74
2019-06-10T10:31:50.698Z,54.94
2019-06-10T10:32:50.460Z,54.16
2019-06-10T10:33:48.511Z,55.33
2019-06-10T10:34:49.845Z,55.46
2019-06-10T10:35:49.297Z,55.86
2019-06-10T10:36:48.770Z,56.26
2019-06-10T10:37:48.531Z,55.46
2019-06-10T10:38:48.849Z,55.49
2019-06-10T10:39:49.069Z,56.96
2019-06-10T10:40:50.332Z,56.03
2019-06-10T10:41:48.697Z,57.13
2019-06-10T10:42:53.950Z,54.21
2019-06-10T10:43:51.353Z,57.43
2019-06-10T10:44:51.239Z,54.94
2019-06-10T10:45:51.812Z,54.91
2019-06-10T10:46:49.316Z,55.98
2019-06-10T10:47:49.038Z,55.48
2019-06-10T10:48:49.004Z,55.26
2019-06-10T10:49:49.101Z,55.23
2019-06-10T10:50:49.186Z,54.13
2019-06-10T10:51:49.003Z,53.83
2019-06-10T10:52:48.597Z,52.54
2019-06-10T10:53:56.236Z,51.77
2019-06-10T10:54:49.410Z,52.09
2019-06-10T10:55:49.179Z,52.69
2019-06-10T10:56:49.618Z,52.59
2019-06-10T10:57:49.299Z,51.97
2019-06-10T10:58:49.227Z,52.37
2019-06-10T10:59:47.910Z,52.54
2019-06-10T11:00:50.366Z,53.11
2019-06-10T11:01:49.430Z,53.91
2019-06-10T11:02:50.681Z,52.81
2019-06-10T11:03:49.730Z,52.42
2019-06-10T11:04:48.005Z,53.71
2019-06-10T11:05:49.917Z,52.59
2019-06-10T11:06:47.939Z,52.09
2019-06-10T11:07:47.828Z,51.72
2019-06-10T11:08:48.305Z,51.92
2019-06-10T11:09:48.580Z,51.62
2019-06-10T11:10:49.506Z,51.32
2019-06-10T11:11:48.864Z,51.62
2019-06-10T11:12:49.010Z,51.12
2019-06-10T11:13:47.785Z,52.72
2019-06-10T11:14:47.743Z,52.32
2019-06-10T11:15:49.025Z,51.62
2019-06-10T11:16:49.395Z,52.51
2019-06-10T11:17:47.838Z,51.84
2019-06-10T11:18:47.703Z,52.44
2019-06-10T11:19:47.784Z,52.94
2019-06-10T11:20:47.708Z,52.07
2019-06-10T11:21:47.671Z,53.66
2019-06-10T11:22:47.700Z,53.76
2019-06-10T11:23:48.116Z,53.06
2019-06-10T11:24:48.926Z,54.53
2019-06-10T11:25:47.823Z,54.73
2019-06-10T11:26:47.875Z,53.83
2019-06-10T11:27:48.430Z,53.66
2019-06-10T11:28:47.610Z,52.76
2019-06-10T11:29:48.177Z,51.82
2019-06-10T11:30:47.581Z,54.11
2019-06-10T11:31:48.471Z,52.92
2019-06-10T11:32:47.983Z,54.91
2019-06-10T11:33:48.706Z,55.51
2019-06-10T11:34:47.732Z,55.71
2019-06-10T11:35:48.731Z,55.38
2019-06-10T11:36:48.001Z,55.28
2019-06-10T11:37:48.875Z,54.46
2019-06-10T11:38:48.587Z,53.16
2019-06-10T11:39:48.136Z,52.94
2019-06-10T11:40:47.460Z,51.65
2019-06-10T11:41:48.134Z,52.04
2019-06-10T11:42:48.356Z,52.32
2019-06-10T11:43:48.388Z,51.12
2019-06-10T11:44:48.386Z,52.00
2019-06-10T11:45:51.167Z,52.29
2019-06-10T11:46:48.634Z,51.60
2019-06-10T11:47:47.381Z,51.92
2019-06-10T11:48:47.432Z,51.72
2019-06-10T11:49:47.370Z,52.32
2019-06-10T11:50:47.369Z,52.09
2019-06-10T11:51:47.361Z,53.78
2019-06-10T11:52:47.563Z,52.49
2019-06-10T11:53:47.444Z,51.70
2019-06-10T11:54:55.144Z,52.49
2019-06-10T11:55:49.506Z,52.86
2019-06-10T11:56:47.743Z,51.47
2019-06-10T11:57:47.866Z,52.07
2019-06-10T11:58:47.906Z,51.65
2019-06-10T11:59:48.024Z,51.54
2019-06-10T12:00:48.686Z,49.84
2019-06-10T12:01:49.267Z,51.03
2019-06-10T12:02:48.224Z,50.01
2019-06-10T12:03:48.371Z,51.18
2019-06-10T12:04:48.352Z,48.20
2019-06-10T12:05:48.960Z,51.10
2019-06-10T12:06:47.189Z,50.09
2019-06-10T12:07:47.191Z,51.47
2019-06-10T12:08:47.167Z,49.88
2019-06-10T12:09:47.207Z,48.60
2019-06-10T12:10:47.177Z,49.69
2019-06-10T12:11:47.124Z,48.80
2019-06-10T12:12:47.127Z,48.92
2019-06-10T12:13:47.144Z,48.65
2019-06-10T12:14:47.117Z,49.74
2019-06-10T12:16:20.713Z,51.25
2019-06-10T12:17:17.574Z,49.07
2019-06-10T12:17:53.511Z,50.13
2019-06-10T12:18:49.047Z,50.03
2019-06-10T12:19:47.082Z,48.13
2019-06-10T12:20:47.019Z,48.54
2019-06-10T12:21:47.062Z,49.71
2019-06-10T12:22:47.004Z,49.36
2019-06-10T12:23:47.021Z,49.86
2019-06-10T12:24:46.984Z,49.93
2019-06-10T12:25:48.033Z,50.43
2019-06-10T12:26:47.054Z,49.41
2019-06-10T12:27:46.974Z,49.69
2019-06-10T12:28:47.121Z,49.32
2019-06-10T12:29:46.978Z,49.93
2019-06-10T12:30:46.942Z,48.57
2019-06-10T12:31:46.968Z,51.47
2019-06-10T12:32:46.926Z,50.58
2019-06-10T12:33:46.888Z,50.31
2019-06-10T12:34:46.914Z,52.19
2019-06-10T12:35:46.942Z,51.79
2019-06-10T12:36:46.868Z,52.00
2019-06-10T12:37:46.856Z,52.32
2019-06-10T12:38:46.879Z,52.84
2019-06-10T12:39:46.931Z,51.22
2019-06-10T12:40:46.812Z,52.91
2019-06-10T12:41:46.805Z,53.21
2019-06-10T12:42:46.797Z,53.02
2019-06-10T12:43:46.815Z,53.74
2019-06-10T12:44:46.771Z,53.51
2019-06-10T12:45:46.755Z,52.32
2019-06-10T12:46:46.832Z,53.02
2019-06-10T12:47:46.742Z,53.19
2019-06-10T12:48:46.750Z,52.09
2019-06-10T12:49:46.730Z,51.40
2019-06-10T12:50:46.703Z,50.78
2019-06-10T12:51:46.681Z,50.43
2019-06-10T12:52:46.701Z,49.51